Time;durP1;ratioP1;P1;durP2;ratioP2;P2;SDS_P1;SDS_P2;PMS_P1;PMS_P2;Temp;Humidity;BMP_temperature;BMP_pressure;BME280_temperature;BME280_humidity;BME280_pressure;Samples;Min_cycle;Max_cycle;Signal;HPM_P1;HPM_P2
2021/06/13 00:03:08;;;;;;;4.03;3.73;;;;;;;12.99;74.23;99618.68;254487;1099;114706;-77
2021/06/13 00:08:11;;;;;;;4.57;3.07;;;;;;;12.95;74.17;99614.89;254398;1104;115164;-74
2021/06/13 00:13:14;;;;;;;4.03;3.58;;;;;;;12.89;74.00;99626.59;254876;1103;114977;-72
2021/06/13 00:18:18;;;;;;;4.00;3.60;;;;;;;12.80;74.02;99623.59;254487;1100;115497;-73
2021/06/13 00:23:21;;;;;;;7.70;4.00;;;;;;;12.74;74.18;99628.06;254299;1104;114756;-72
2021/06/13 00:28:25;;;;;;;6.38;4.15;;;;;;;12.66;74.18;99623.16;254298;1104;115178;-72
2021/06/13 00:33:29;;;;;;;7.75;3.75;;;;;;;12.61;74.46;99624.97;254485;1104;115228;-72
2021/06/13 00:38:33;;;;;;;7.77;3.37;;;;;;;12.49;74.15;99630.46;254394;1104;114773;-72
2021/06/13 00:43:36;;;;;;;5.15;3.55;;;;;;;12.42;74.57;99633.32;255920;1103;117424;-69
2021/06/13 00:48:39;;;;;;;5.18;3.00;;;;;;;12.35;74.34;99629.20;254674;1097;115351;-71
2021/06/13 00:53:44;;;;;;;3.85;3.43;;;;;;;12.28;74.26;99632.06;255957;1104;115042;-70
2021/06/13 00:58:49;;;;;;;3.95;3.53;;;;;;;12.22;74.43;99630.41;254877;1103;115248;-71
2021/06/13 01:03:52;;;;;;;5.00;2.20;;;;;;;12.17;74.29;99633.01;254795;1104;114983;-72
2021/06/13 01:09:03;;;;;;;4.57;2.90;;;;;;;12.13;74.35;99640.70;254932;1104;115798;-73
2021/06/13 01:14:32;;;;;;;3.50;3.05;;;;;;;12.14;74.31;99628.16;254531;1098;114705;-74
2021/06/13 01:19:53;;;;;;;9.27;2.93;;;;;;;12.08;74.65;99632.62;254483;1104;115110;-73
2021/06/13 01:25:20;;;;;;;5.93;3.08;;;;;;;11.99;74.42;99627.94;254462;1104;114800;-74
2021/06/13 01:30:29;;;;;;;2.45;2.25;;;;;;;11.96;74.65;99634.58;254589;1104;114897;-73
2021/06/13 01:35:34;;;;;;;4.10;3.70;;;;;;;11.94;74.28;99636.68;254725;1104;115566;-73
2021/06/13 01:40:40;;;;;;;6.80;4.00;;;;;;;11.90;75.09;99626.76;254504;1104;114856;-73
2021/06/13 01:45:45;;;;;;;5.10;4.45;;;;;;;11.80;75.13;99622.88;254728;1104;115065;-72
2021/06/13 01:50:50;;;;;;;6.80;3.17;;;;;;;11.79;75.03;99626.61;254708;1104;114737;-72
2021/06/13 01:55:55;;;;;;;8.30;4.60;;;;;;;11.82;75.47;99627.17;254461;1098;115872;-72
2021/06/13 02:00:59;;;;;;;6.10;3.85;;;;;;;11.76;75.64;99621.75;254351;1104;115494;-71
2021/06/13 02:06:05;;;;;;;5.57;4.10;;;;;;;11.74;75.52;99623.83;255349;1104;115593;-72
2021/06/13 02:11:11;;;;;;;7.40;4.65;;;;;;;11.77;75.73;99633.23;254980;1104;114265;-73
2021/06/13 02:16:16;;;;;;;5.93;3.13;;;;;;;11.74;75.84;99629.16;254760;1104;114452;-73
2021/06/13 02:21:20;;;;;;;6.45;2.80;;;;;;;11.70;75.66;99640.58;254546;1103;115270;-73
2021/06/13 02:26:26;;;;;;;3.93;3.63;;;;;;;11.66;75.77;99645.59;255163;1104;114854;-72
2021/06/13 02:31:32;;;;;;;;;;;;;;;11.64;75.70;99653.03;255126;1098;115127;-72
2021/06/13 02:36:37;;;;;;;5.88;3.68;;;;;;;11.67;75.87;99662.42;255869;1104;103006;-72
2021/06/13 02:41:41;;;;;;;10.00;3.27;;;;;;;11.66;75.74;99658.13;257019;1103;114651;-72
2021/06/13 02:46:44;;;;;;;4.75;3.25;;;;;;;11.71;75.64;99667.03;255320;1104;115269;-72
2021/06/13 02:52:15;;;;;;;4.93;2.78;;;;;;;11.69;75.61;99679.81;254746;1104;114913;-73
2021/06/13 02:57:28;;;;;;;5.10;3.50;;;;;;;11.68;75.61;99680.87;256693;1103;114595;-70
2021/06/13 03:02:33;;;;;;;7.50;3.38;;;;;;;11.75;75.38;99696.73;255152;1104;116067;-71
2021/06/13 03:07:37;;;;;;;8.65;3.48;;;;;;;11.75;75.48;99694.88;256569;1104;115404;-75
2021/06/13 03:12:43;;;;;;;5.80;3.00;;;;;;;11.78;75.28;99707.77;256011;1102;115157;-71
2021/06/13 03:17:47;;;;;;;3.03;2.45;;;;;;;11.90;75.31;99720.25;254431;1104;114570;-72
2021/06/13 03:22:56;;;;;;;4.75;2.98;;;;;;;11.93;75.13;99720.54;254451;1104;115298;-70
2021/06/13 03:28:01;;;;;;;8.15;4.45;;;;;;;11.95;75.27;99722.97;255222;1104;115351;-68
2021/06/13 03:33:06;;;;;;;3.43;2.98;;;;;;;12.00;74.86;99733.73;254449;1104;115537;-71
2021/06/13 03:38:10;;;;;;;4.55;2.43;;;;;;;12.03;74.78;99743.94;254270;1104;114964;-70
2021/06/13 03:43:16;;;;;;;5.05;3.40;;;;;;;12.06;74.67;99744.27;254728;1104;114913;-70
2021/06/13 03:48:23;;;;;;;6.40;3.97;;;;;;;12.10;75.18;99758.77;254799;1100;115193;-70
2021/06/13 03:53:32;;;;;;;7.00;2.58;;;;;;;12.19;74.32;99761.84;254299;1104;115215;-70
2021/06/13 03:58:36;;;;;;;9.23;3.10;;;;;;;12.31;74.40;99769.75;254428;1104;115071;-70
2021/06/13 04:03:46;;;;;;;7.48;3.55;;;;;;;12.40;74.13;99776.30;254395;1104;115264;-69
2021/06/13 04:08:51;;;;;;;5.53;2.83;;;;;;;12.65;73.64;99770.50;254316;1104;115248;-70
2021/06/13 04:13:57;;;;;;;4.75;2.20;;;;;;;12.97;73.22;99782.14;254640;1104;115875;-70
2021/06/13 04:19:02;;;;;;;5.70;3.45;;;;;;;13.43;72.71;99780.03;254418;1099;115515;-69
2021/06/13 04:24:08;;;;;;;5.08;2.73;;;;;;;13.80;72.36;99780.09;255475;1103;115126;-68
2021/06/13 04:29:13;;;;;;;7.90;2.45;;;;;;;14.34;71.73;99783.49;254606;1103;115291;-71
2021/06/13 04:34:16;;;;;;;4.25;2.30;;;;;;;16.60;68.71;99781.86;255508;1104;114663;-69
2021/06/13 04:39:20;;;;;;;6.00;2.40;;;;;;;20.07;64.37;99790.84;254711;1104;114683;-69
2021/06/13 04:44:23;;;;;;;3.18;2.50;;;;;;;22.58;61.82;99799.61;255913;1104;114661;-69
2021/06/13 04:49:27;;;;;;;3.93;2.53;;;;;;;23.23;57.29;99789.94;254236;1104;114813;-70
2021/06/13 04:54:59;;;;;;;4.97;2.73;;;;;;;22.28;57.24;99798.48;254478;1104;114985;-70
2021/06/13 05:00:04;;;;;;;9.87;2.87;;;;;;;21.09;56.96;99800.63;254429;1100;114484;-70
2021/06/13 05:05:08;;;;;;;4.23;2.55;;;;;;;21.40;56.01;99797.30;256270;1099;114775;-70
2021/06/13 05:10:12;;;;;;;7.78;2.45;;;;;;;24.09;52.34;99795.42;256278;1103;115687;-70
2021/06/13 05:15:17;;;;;;;2.48;2.28;;;;;;;26.84;49.45;99808.34;256241;1104;115044;-71
2021/06/13 05:20:20;;;;;;;3.93;2.30;;;;;;;29.25;46.18;99824.52;255110;1104;114735;-73
2021/06/13 05:25:26;;;;;;;5.95;2.20;;;;;;;28.26;44.52;99831.81;254253;1103;115700;-74
2021/06/13 05:30:33;;;;;;;3.00;2.73;;;;;;;26.27;45.55;99839.19;255620;1100;115258;-74
2021/06/13 05:35:39;;;;;;;5.00;2.53;;;;;;;23.77;46.14;99853.89;254335;1104;114945;-73
2021/06/13 05:40:44;;;;;;;8.70;2.80;;;;;;;21.85;47.78;99858.66;254687;1100;115107;-70
2021/06/13 05:45:47;;;;;;;3.60;2.33;;;;;;;20.55;49.01;99854.75;254581;1104;114948;-73
2021/06/13 05:50:51;;;;;;;3.33;2.00;;;;;;;19.35;50.22;99859.73;254297;1103;115745;-70
2021/06/13 05:55:55;;;;;;;6.20;2.90;;;;;;;18.58;51.99;99872.44;254428;1104;115549;-70
2021/06/13 06:00:59;;;;;;;3.83;1.93;;;;;;;17.86;52.61;99874.06;254355;1104;115386;-70
2021/06/13 06:06:03;;;;;;;4.00;2.05;;;;;;;17.33;53.48;99885.35;255034;1104;115530;-70
2021/06/13 06:11:08;;;;;;;12.50;2.43;;;;;;;16.75;54.16;99878.78;254335;1104;115804;-69
2021/06/13 06:16:13;;;;;;;13.70;2.60;;;;;;;16.44;55.36;99884.16;254321;1099;115575;-72
2021/06/13 06:21:16;;;;;;;6.98;2.28;;;;;;;16.22;56.00;99885.47;254340;1104;114859;-69
2021/06/13 06:26:20;;;;;;;9.23;2.57;;;;;;;15.94;56.58;99884.91;254759;1104;115545;-69
2021/06/13 06:31:24;;;;;;;2.38;2.18;;;;;;;15.79;56.75;99899.13;254933;1104;115252;-69
2021/06/13 06:36:29;;;;;;;4.83;2.90;;;;;;;15.81;57.51;99893.49;254250;1099;114482;-70
2021/06/13 06:41:36;;;;;;;5.80;2.28;;;;;;;15.91;57.98;99898.88;254384;1104;115182;-70
2021/06/13 06:46:41;;;;;;;2.93;2.50;;;;;;;15.98;57.43;99906.69;256002;1104;115052;-70
2021/06/13 06:51:50;;;;;;;2.57;1.73;;;;;;;15.92;57.32;99908.55;255557;1102;114856;-69
2021/06/13 06:56:55;;;;;;;5.13;2.73;;;;;;;15.85;57.70;99907.22;255469;1104;117667;-70
2021/06/13 07:01:59;;;;;;;4.67;2.43;;;;;;;16.36;58.02;99903.52;257517;1104;114480;-70
2021/06/13 07:07:03;;;;;;;6.07;2.43;;;;;;;16.40;57.92;99901.91;257498;1104;115623;-70
2021/06/13 07:12:08;;;;;;;5.63;2.78;;;;;;;16.33;57.34;99914.00;257474;1104;116693;-70
2021/06/13 07:17:12;;;;;;;10.33;2.10;;;;;;;16.33;57.31;99922.08;257495;1104;117094;-70
2021/06/13 07:22:16;;;;;;;7.97;2.47;;;;;;;16.05;57.42;99921.50;254447;1104;116732;-69
2021/06/13 07:27:21;;;;;;;2.75;1.75;;;;;;;16.30;57.75;99922.61;254480;1104;116905;-69
2021/06/13 07:32:25;;;;;;;8.93;2.87;;;;;;;16.56;57.28;99935.00;254359;1104;207638;-70
2021/06/13 07:37:29;;;;;;;2.93;2.07;;;;;;;16.36;57.26;99940.38;255494;1104;115219;-69
2021/06/13 07:42:33;;;;;;;3.68;2.43;;;;;;;16.28;57.22;99938.20;254263;1098;115216;-70
2021/06/13 07:47:40;;;;;;;4.00;1.70;;;;;;;16.46;57.56;99943.89;256137;1104;136564;-70
2021/06/13 07:52:46;;;;;;;5.67;2.70;;;;;;;17.50;57.75;99938.91;254820;1104;116269;-69
2021/06/13 07:57:49;;;;;;;3.07;2.17;;;;;;;17.73;56.09;99946.38;254457;1104;117007;-70
2021/06/13 08:02:53;;;;;;;4.48;2.53;;;;;;;17.53;55.74;99949.13;254365;1104;116595;-70
2021/06/13 08:08:05;;;;;;;2.30;1.90;;;;;;;18.13;56.44;99956.16;254487;1104;116439;-70
2021/06/13 08:13:10;;;;;;;3.90;2.15;;;;;;;18.03;54.98;99960.82;254512;1104;115995;-70
2021/06/13 08:18:15;;;;;;;2.48;1.83;;;;;;;17.84;55.20;99961.44;254479;1100;116961;-70
2021/06/13 08:23:19;;;;;;;5.25;2.50;;;;;;;18.14;55.30;99965.05;254464;1104;116584;-69
2021/06/13 08:28:23;;;;;;;5.23;2.15;;;;;;;18.51;54.83;99976.16;254204;1104;116229;-70
2021/06/13 08:33:27;;;;;;;7.45;2.93;;;;;;;18.32;54.07;99983.31;254418;1103;116337;-70
2021/06/13 08:38:31;;;;;;;9.90;3.58;;;;;;;18.13;53.93;99996.63;254825;1104;116657;-70
2021/06/13 08:43:35;;;;;;;6.55;2.43;;;;;;;18.02;53.70;99997.78;254803;1104;116420;-70
2021/06/13 08:48:41;;;;;;;4.40;2.08;;;;;;;18.00;54.00;100005.34;254400;1100;115784;-70
2021/06/13 08:53:46;;;;;;;4.73;2.47;;;;;;;18.10;53.90;100007.97;255046;1104;116450;-70
2021/06/13 08:58:52;;;;;;;11.80;2.70;;;;;;;17.99;53.73;100011.01;254840;1104;116361;-70
2021/06/13 09:04:02;;;;;;;3.93;2.03;;;;;;;18.11;53.79;100009.58;257128;1102;115768;-70
2021/06/13 09:09:16;;;;;;;;;;;;;;;18.52;54.00;100012.05;256298;1104;115168;-70
2021/06/13 09:14:19;;;;;;;3.47;2.37;;;;;;;18.60;53.23;100011.50;257734;1103;103007;-70
2021/06/13 09:19:22;;;;;;;7.80;2.00;;;;;;;18.70;52.85;100024.09;254348;1104;116069;-70
2021/06/13 09:24:27;;;;;;;7.73;3.00;;;;;;;19.03;52.47;100015.19;256166;1097;115063;-70
2021/06/13 09:29:50;;;;;;;10.38;2.70;;;;;;;18.91;52.20;100020.17;254528;1103;114897;-70
2021/06/13 09:35:22;;;;;;;8.48;2.45;;;;;;;19.53;52.49;100023.14;255470;1104;116092;-71
2021/06/13 09:40:26;;;;;;;9.35;2.35;;;;;;;19.77;51.95;100027.45;254811;1096;115430;-70
2021/06/13 09:45:29;;;;;;;2.90;2.20;;;;;;;19.90;50.96;100028.64;255340;1097;116548;-70
2021/06/13 09:50:44;;;;;;;4.38;2.18;;;;;;;19.93;50.92;100033.48;254407;1103;116808;-70
2021/06/13 09:56:04;;;;;;;9.48;2.58;;;;;;;20.35;50.56;100034.57;254748;1104;115623;-70
2021/06/13 10:01:10;;;;;;;8.90;3.10;;;;;;;20.21;49.95;100045.30;254394;1103;116449;-71
2021/06/13 10:06:15;;;;;;;6.48;1.53;;;;;;;20.15;49.65;100038.37;254406;1097;117003;-70
2021/06/13 10:11:19;;;;;;;6.03;2.33;;;;;;;20.52;49.66;100053.84;254483;1102;116221;-70
2021/06/13 10:16:25;;;;;;;7.93;2.28;;;;;;;20.59;49.20;100043.45;254451;1103;115481;-69
2021/06/13 10:21:35;;;;;;;4.45;2.18;;;;;;;20.30;48.38;100054.39;254413;1104;116161;-70
2021/06/13 10:26:42;;;;;;;4.03;2.30;;;;;;;20.47;49.39;100052.03;254442;1103;117454;-70
2021/06/13 10:31:48;;;;;;;3.70;2.23;;;;;;;20.70;48.89;100058.47;255206;1102;117022;-70
2021/06/13 10:36:54;;;;;;;3.00;2.50;;;;;;;20.91;48.30;100058.95;255480;1104;115367;-70
2021/06/13 10:41:58;;;;;;;5.53;2.48;;;;;;;20.76;47.95;100062.72;254563;1103;116716;-70
2021/06/13 10:47:13;;;;;;;4.90;2.48;;;;;;;20.37;47.40;100056.75;254852;1104;117350;-70
2021/06/13 10:52:20;;;;;;;2.40;2.20;;;;;;;20.14;47.57;100061.11;255940;1103;116048;-71
2021/06/13 10:57:37;;;;;;;3.47;1.93;;;;;;;20.13;47.74;100059.50;257254;1103;115494;-71
2021/06/13 11:02:40;;;;;;;3.48;1.63;;;;;;;20.09;48.17;100074.70;255922;1103;115503;-70
2021/06/13 11:07:56;;;;;;;5.03;2.80;;;;;;;19.93;47.85;100084.08;256944;1104;115070;-71
2021/06/13 11:13:02;;;;;;;;;;;;;;;19.93;48.00;100076.77;257257;1104;115726;-71
2021/06/13 11:18:08;;;;;;;4.15;1.63;;;;;;;19.92;48.16;100087.88;258165;1103;101992;-71
2021/06/13 11:23:14;;;;;;;;;;;;;;;19.76;47.91;100098.88;254786;1103;115316;-71
2021/06/13 11:28:27;;;;;;;3.08;1.83;;;;;;;19.80;47.85;100091.80;255734;1103;103254;-70
2021/06/13 11:33:40;;;;;;;6.55;1.93;;;;;;;19.82;47.79;100089.63;255317;1097;116079;-70
2021/06/13 11:38:50;;;;;;;4.60;2.30;;;;;;;19.65;47.45;100101.95;254172;1104;114980;-70
2021/06/13 11:43:55;;;;;;;3.93;2.03;;;;;;;19.64;47.34;100101.16;254849;1103;115515;-71
2021/06/13 11:49:02;;;;;;;3.03;2.23;;;;;;;19.76;47.31;100106.99;255128;1104;114899;-71
2021/06/13 11:54:07;;;;;;;2.13;1.75;;;;;;;19.51;47.25;100112.66;254372;1103;115095;-70
2021/06/13 11:59:11;;;;;;;1.50;1.40;;;;;;;19.47;47.20;100116.98;254238;1104;115110;-70
2021/06/13 12:04:19;;;;;;;4.78;2.55;;;;;;;19.51;47.13;100115.36;254491;1096;115794;-70
2021/06/13 12:09:24;;;;;;;3.13;2.65;;;;;;;19.45;47.21;100111.86;254364;1098;117309;-70
2021/06/13 12:14:41;;;;;;;2.58;1.98;;;;;;;19.37;47.05;100111.66;254572;1103;115873;-69
2021/06/13 12:20:07;;;;;;;5.13;2.13;;;;;;;19.44;46.78;100117.55;254191;1102;115333;-70
2021/06/13 12:30:57;;;;;;;2.50;1.88;;;;;;;20.12;46.50;100128.25;255085;1104;114852;-70
2021/06/13 12:36:04;;;;;;;2.43;2.08;;;;;;;20.02;47.26;100117.53;254436;1104;115582;-69
2021/06/13 12:41:09;;;;;;;11.68;2.50;;;;;;;20.29;46.56;100123.17;255119;1103;118294;-70
2021/06/13 12:46:16;;;;;;;5.18;2.40;;;;;;;20.42;46.30;100117.09;254274;1096;118267;-71
2021/06/13 12:51:25;;;;;;;2.70;1.40;;;;;;;20.37;46.30;100119.02;255360;1104;205827;-70
2021/06/13 12:56:29;;;;;;;4.93;2.45;;;;;;;20.54;46.01;100119.35;254484;1104;115329;-71
2021/06/13 13:01:33;;;;;;;3.30;1.90;;;;;;;20.62;45.67;100131.45;254374;1104;115256;-71
2021/06/13 13:06:50;;;;;;;2.20;2.00;;;;;;;20.67;45.09;100113.23;257322;1104;114886;-71
2021/06/13 13:11:54;;;;;;;2.43;2.00;;;;;;;20.87;44.81;100117.54;257227;1104;115035;-75
2021/06/13 13:17:02;;;;;;;1.77;1.67;;;;;;;21.13;44.84;100121.47;257319;1104;115421;-78
2021/06/13 13:22:19;;;;;;;3.03;1.17;;;;;;;21.17;44.46;100118.98;257438;1104;115515;-75
2021/06/13 13:27:29;;;;;;;2.68;1.85;;;;;;;21.32;44.64;100117.97;256120;1104;116063;-79
2021/06/13 13:32:55;;;;;;;4.50;2.05;;;;;;;21.13;43.81;100121.47;255469;1097;115595;-80
2021/06/13 13:38:00;;;;;;;1.80;1.08;;;;;;;21.08;43.52;100123.48;255763;1103;115961;-77
2021/06/13 13:43:12;;;;;;;2.60;1.70;;;;;;;21.01;43.73;100115.72;254598;1096;116290;-70
2021/06/13 13:48:19;;;;;;;5.90;2.48;;;;;;;21.04;43.46;100122.45;255443;1102;116116;-78
2021/06/13 13:53:48;;;;;;;8.60;2.08;;;;;;;20.94;43.74;100117.17;254768;1104;116112;-75
2021/06/13 13:58:56;;;;;;;3.00;1.60;;;;;;;20.88;43.58;100131.89;254585;1104;116214;-71
2021/06/13 14:04:01;;;;;;;5.40;1.70;;;;;;;20.91;43.05;100126.70;254589;1104;116118;-70
2021/06/13 14:09:07;;;;;;;1.78;1.63;;;;;;;20.83;43.55;100136.28;254686;1102;116342;-73
2021/06/13 14:14:10;;;;;;;;;;;;;;;20.73;43.19;100130.22;254227;1104;116053;-78
2021/06/13 14:19:16;;;;;;;5.50;2.00;;;;;;;20.34;43.06;100142.06;255783;1103;103639;-71
2021/06/13 14:24:24;;;;;;;3.30;1.85;;;;;;;20.34;43.19;100139.36;254574;1097;116684;-76
2021/06/13 14:29:29;;;;;;;3.53;1.18;;;;;;;19.95;43.24;100128.70;254504;1104;116054;-72
2021/06/13 14:34:31;;;;;;;5.58;1.80;;;;;;;19.56;44.17;100136.95;254401;1104;115897;-75
2021/06/13 14:39:34;;;;;;;2.77;1.53;;;;;;;19.64;44.08;100130.90;254338;1104;115876;-76
2021/06/13 14:44:38;;;;;;;1.95;1.50;;;;;;;19.81;44.12;100127.78;254332;1097;117662;-80
2021/06/13 14:49:41;;;;;;;3.95;1.43;;;;;;;19.81;44.02;100135.89;255381;1103;116413;-79
2021/06/13 14:54:44;;;;;;;4.48;1.45;;;;;;;19.89;44.41;100134.44;255109;1104;117832;-71
2021/06/13 14:59:50;;;;;;;2.13;1.63;;;;;;;19.93;43.90;100121.95;254354;1104;116860;-75
2021/06/13 15:04:53;;;;;;;2.35;1.25;;;;;;;19.87;44.36;100131.24;257344;1102;115687;-79
2021/06/13 15:09:56;;;;;;;2.33;1.67;;;;;;;19.95;44.50;100134.11;255332;1104;115563;-74
2021/06/13 15:14:59;;;;;;;1.73;1.13;;;;;;;19.94;44.29;100145.22;256271;1104;116200;-74
2021/06/13 15:20:01;;;;;;;2.75;0.95;;;;;;;19.79;43.67;100146.19;257223;1103;116833;-75
2021/06/13 15:25:06;;;;;;;2.13;1.65;;;;;;;19.71;43.69;100144.91;254409;1104;115373;-75
2021/06/13 15:30:11;;;;;;;1.95;1.03;;;;;;;19.82;44.54;100151.84;255398;1103;115310;-72
2021/06/13 15:35:14;;;;;;;3.87;1.50;;;;;;;19.76;44.21;100157.58;256098;1104;116206;-73
2021/06/13 15:40:19;;;;;;;4.43;1.55;;;;;;;19.80;44.68;100156.73;255144;1104;115947;-76
2021/06/13 15:45:25;;;;;;;2.43;1.20;;;;;;;19.77;44.45;100153.78;254598;1104;116422;-71
2021/06/13 15:50:29;;;;;;;7.80;2.40;;;;;;;19.64;44.80;100155.24;254428;1102;116903;-70
2021/06/13 16:00:37;;;;;;;7.78;1.73;;;;;;;19.62;44.63;100159.31;254464;1102;116187;-70
2021/06/13 16:05:43;;;;;;;4.00;1.53;;;;;;;19.48;44.90;100169.97;254467;1104;117297;-71
2021/06/13 16:10:47;;;;;;;;;;;;;;;19.36;44.93;100166.80;254189;1102;115949;-72
2021/06/13 16:15:50;;;;;;;5.20;1.68;;;;;;;19.24;45.07;100169.88;255960;1103;102926;-75
2021/06/13 16:20:53;;;;;;;4.53;1.60;;;;;;;19.16;45.18;100171.28;254400;1104;114895;-73
2021/06/13 16:25:57;;;;;;;5.50;1.70;;;;;;;19.16;45.46;100173.98;254228;1102;115486;-71
2021/06/13 16:31:01;;;;;;;3.73;1.05;;;;;;;19.05;45.24;100167.02;254610;1104;115273;-73
2021/06/13 16:36:05;;;;;;;2.03;1.48;;;;;;;18.91;45.82;100170.64;254135;1104;115998;-71
2021/06/13 16:41:08;;;;;;;2.33;1.58;;;;;;;18.71;46.07;100175.05;255618;1103;115469;-74
2021/06/13 16:46:12;;;;;;;3.60;1.80;;;;;;;18.62;46.67;100184.02;254980;1103;137974;-72
2021/06/13 16:51:15;;;;;;;5.93;1.60;;;;;;;18.56;46.78;100188.59;254313;1104;115363;-74
2021/06/13 16:56:19;;;;;;;9.78;1.70;;;;;;;18.47;46.72;100199.15;254757;1104;115672;-73
2021/06/13 17:01:22;;;;;;;5.10;1.85;;;;;;;18.37;46.81;100191.08;255272;1103;115169;-72
2021/06/13 17:06:29;;;;;;;3.13;1.75;;;;;;;18.29;47.28;100194.36;257339;1103;116199;-70
2021/06/13 17:11:39;;;;;;;6.95;1.35;;;;;;;18.21;47.41;100197.61;255751;1103;115802;-72
2021/06/13 17:16:43;;;;;;;6.50;1.55;;;;;;;18.10;47.71;100204.91;256353;1102;116530;-73
2021/06/13 17:21:48;;;;;;;1.78;1.53;;;;;;;18.01;47.67;100214.66;257216;1104;115793;-73
2021/06/13 17:26:51;;;;;;;5.78;2.00;;;;;;;17.90;47.97;100213.05;255486;1103;116458;-75
2021/06/13 17:31:56;;;;;;;7.85;2.03;;;;;;;17.86;48.32;100220.05;254722;1104;116878;-75
2021/06/13 17:37:21;;;;;;;1.78;1.30;;;;;;;17.78;48.85;100231.38;254667;1104;116630;-75
2021/06/13 17:42:27;;;;;;;2.38;1.70;;;;;;;17.67;48.85;100230.59;255522;1096;116114;-75
2021/06/13 17:47:33;;;;;;;6.43;1.43;;;;;;;17.60;48.60;100235.40;256192;1104;115826;-73
2021/06/13 17:52:38;;;;;;;2.28;1.60;;;;;;;17.54;48.53;100241.05;255556;1103;116884;-74
2021/06/13 17:57:42;;;;;;;5.68;1.73;;;;;;;17.44;48.80;100239.14;254784;1103;115871;-75
2021/06/13 18:02:45;;;;;;;1.55;1.20;;;;;;;17.31;48.79;100239.67;254669;1103;115540;-75
2021/06/13 18:07:48;;;;;;;6.60;1.30;;;;;;;17.17;48.59;100258.22;255387;1104;116028;-74
2021/06/13 18:12:52;;;;;;;1.40;1.18;;;;;;;17.04;49.09;100259.55;254343;1103;115434;-74
2021/06/13 18:17:56;;;;;;;4.08;1.68;;;;;;;16.93;49.49;100268.65;254204;1104;115638;-75
2021/06/13 18:23:01;;;;;;;2.15;1.40;;;;;;;16.84;49.75;100267.53;254517;1096;207887;-74
2021/06/13 18:28:04;;;;;;;2.80;1.75;;;;;;;16.72;50.29;100275.03;254384;1103;115363;-74
2021/06/13 18:33:08;;;;;;;3.80;1.60;;;;;;;16.64;50.51;100278.20;254409;1097;115510;-75
2021/06/13 18:38:14;;;;;;;3.75;1.78;;;;;;;16.54;50.85;100280.80;255313;1104;115218;-73
2021/06/13 18:43:18;;;;;;;4.58;1.45;;;;;;;16.43;50.30;100283.45;254327;1104;115542;-72
2021/06/13 18:48:25;;;;;;;2.45;0.95;;;;;;;16.35;50.95;100299.27;254423;1104;116021;-75
2021/06/13 18:53:29;;;;;;;1.75;1.38;;;;;;;16.28;51.42;100304.05;254220;1099;115638;-75
2021/06/13 18:58:33;;;;;;;4.88;1.88;;;;;;;16.16;51.48;100309.63;254627;1100;115545;-73
2021/06/13 19:03:36;;;;;;;6.60;2.20;;;;;;;16.04;51.33;100314.36;254712;1103;115818;-73
2021/06/13 19:08:40;;;;;;;1.63;1.30;;;;;;;15.93;51.51;100324.21;255428;1097;115621;-73
2021/06/13 19:13:45;;;;;;;3.78;1.73;;;;;;;15.79;51.86;100325.71;254500;1104;115290;-73
2021/06/13 19:18:53;;;;;;;2.58;1.40;;;;;;;15.67;52.22;100335.80;254269;1103;115171;-74
2021/06/13 19:23:58;;;;;;;3.13;1.60;;;;;;;15.52;52.27;100341.80;256773;1104;115048;-74
2021/06/13 19:29:01;;;;;;;5.17;1.40;;;;;;;15.39;52.41;100355.61;256860;1102;115303;-75
2021/06/13 19:34:05;;;;;;;3.17;1.80;;;;;;;15.30;52.89;100351.73;257422;1102;115614;-73
2021/06/13 19:39:09;;;;;;;2.93;1.50;;;;;;;15.25;52.95;100360.58;256309;1104;114905;-72
2021/06/13 19:44:13;;;;;;;4.08;1.58;;;;;;;15.18;53.19;100368.00;255263;1103;114891;-71
2021/06/13 19:49:19;;;;;;;7.20;1.43;;;;;;;15.09;53.33;100372.98;256660;1104;115571;-74
2021/06/13 19:54:24;;;;;;;2.83;1.60;;;;;;;15.02;53.56;100383.08;255931;1103;115549;-73
2021/06/13 19:59:30;;;;;;;2.77;1.63;;;;;;;14.95;53.68;100377.10;254598;1096;115114;-73
2021/06/13 20:04:35;;;;;;;5.15;1.43;;;;;;;14.90;54.03;100384.27;254813;1104;115930;-73
2021/06/13 20:09:39;;;;;;;2.10;1.77;;;;;;;14.86;53.97;100389.31;254761;1104;114764;-71
2021/06/13 20:14:44;;;;;;;5.08;1.43;;;;;;;14.81;54.50;100382.00;254337;1103;115242;-71
2021/06/13 20:19:49;;;;;;;2.53;1.73;;;;;;;14.76;54.69;100391.84;254611;1104;115258;-71
2021/06/13 20:24:55;;;;;;;4.68;1.60;;;;;;;14.72;54.82;100398.75;254368;1104;115171;-75
2021/06/13 20:30:00;;;;;;;3.20;1.58;;;;;;;14.66;55.16;100397.08;254377;1104;116083;-72
2021/06/13 20:35:06;;;;;;;2.38;1.23;;;;;;;14.62;55.21;100406.67;255078;1103;115773;-72
2021/06/13 20:40:11;;;;;;;3.00;1.25;;;;;;;14.59;55.57;100416.02;254598;1104;115428;-72
2021/06/13 20:45:20;;;;;;;5.75;1.78;;;;;;;14.56;55.51;100415.69;254487;1104;115201;-74
2021/06/13 20:50:24;;;;;;;4.95;2.03;;;;;;;14.53;56.09;100422.35;254714;1104;117098;-73
2021/06/13 20:55:27;;;;;;;1.80;1.20;;;;;;;14.48;56.39;100425.77;254293;1103;115970;-71
2021/06/13 21:00:32;;;;;;;1.83;1.65;;;;;;;14.37;56.51;100423.14;254351;1104;115308;-72
2021/06/13 21:05:37;;;;;;;2.30;2.10;;;;;;;14.32;56.23;100428.41;254299;1104;115358;-73
2021/06/13 21:10:41;;;;;;;4.00;1.50;;;;;;;14.22;56.33;100438.95;254485;1096;116371;-75
2021/06/13 21:15:43;;;;;;;4.70;1.83;;;;;;;14.05;56.66;100428.22;254440;1103;116006;-75
2021/06/13 21:20:48;;;;;;;4.65;1.73;;;;;;;13.89;56.98;100435.14;254193;1104;117250;-73
2021/06/13 21:25:52;;;;;;;4.15;1.55;;;;;;;13.78;57.25;100436.80;257301;1104;116045;-74
2021/06/13 21:30:56;;;;;;;5.40;1.63;;;;;;;13.66;56.80;100449.45;256705;1104;117291;-72
2021/06/13 21:36:00;;;;;;;2.83;1.57;;;;;;;13.54;57.03;100456.69;256833;1103;115303;-72
2021/06/13 21:41:04;;;;;;;3.03;1.90;;;;;;;13.40;57.58;100455.33;255352;1103;115370;-71
2021/06/13 21:46:08;;;;;;;5.30;1.73;;;;;;;13.31;57.75;100460.22;257132;1104;115154;-70
2021/06/13 21:51:12;;;;;;;6.60;2.00;;;;;;;13.22;58.12;100471.52;254842;1102;117424;-71
2021/06/13 21:56:24;;;;;;;2.80;1.63;;;;;;;13.12;58.34;100464.88;254426;1104;116569;-72
2021/06/13 22:01:30;;;;;;;1.73;1.33;;;;;;;13.05;58.63;100464.17;254497;1104;117309;-68
2021/06/13 22:06:35;;;;;;;3.00;1.68;;;;;;;12.98;58.99;100468.82;255959;1104;116198;-69
2021/06/13 22:11:39;;;;;;;9.43;3.15;;;;;;;12.89;59.17;100467.53;254538;1104;216460;-71
2021/06/13 22:16:42;;;;;;;4.80;1.80;;;;;;;12.78;59.39;100476.38;254437;1103;116630;-72
2021/06/13 22:21:45;;;;;;;3.45;1.55;;;;;;;12.70;59.88;100469.50;254778;1104;115889;-70
2021/06/13 22:26:49;;;;;;;4.50;1.70;;;;;;;12.60;60.01;100469.24;254462;1104;116088;-70
2021/06/13 22:31:55;;;;;;;1.38;1.28;;;;;;;12.46;59.89;100468.65;255233;1104;117267;-71
2021/06/13 22:36:58;;;;;;;5.40;2.18;;;;;;;12.36;60.30;100471.05;254374;1104;116122;-71
2021/06/13 22:42:02;;;;;;;3.38;1.55;;;;;;;12.25;60.37;100468.34;255199;1104;115524;-70
2021/06/13 22:47:06;;;;;;;5.83;1.63;;;;;;;12.20;60.89;100477.06;254388;1104;206481;-73
2021/06/13 22:52:13;;;;;;;7.15;1.98;;;;;;;12.16;60.70;100478.55;254714;1103;115296;-72
2021/06/13 22:57:16;;;;;;;4.60;1.70;;;;;;;12.10;60.96;100487.47;254366;1104;116863;-71
2021/06/13 23:02:18;;;;;;;2.38;2.18;;;;;;;12.05;61.08;100484.66;254445;1097;115547;-72
2021/06/13 23:07:22;;;;;;;2.20;1.60;;;;;;;11.99;61.35;100482.88;255160;1103;115714;-71
2021/06/13 23:12:26;;;;;;;6.63;2.68;;;;;;;11.95;61.59;100473.68;254497;1103;115972;-72
2021/06/13 23:17:29;;;;;;;3.53;2.50;;;;;;;11.88;61.70;100471.12;255243;1102;114959;-71
2021/06/13 23:22:32;;;;;;;2.35;1.80;;;;;;;11.79;62.48;100475.95;254923;1102;115681;-72
2021/06/13 23:27:37;;;;;;;2.43;2.20;;;;;;;11.74;62.08;100481.11;254526;1097;114648;-72
2021/06/13 23:32:42;;;;;;;3.80;2.73;;;;;;;11.71;62.22;100468.20;254451;1104;115702;-75